Aviation Digital Data Service (ADDS)

Output produced by METARs form (1854 UTC 29 August 2015)
found at http://aviationweather.gov/adds/metars/
 
KCON 291727Z 2918/3018 24005KT P6SM SCT100 BKN250 
     FM300000 00000KT P6SM SCT100 BKN250 
     FM301400 30008KT P6SM SCT100 BKN250